Time;durP1;ratioP1;P1;durP2;ratioP2;P2;SDS_P1;SDS_P2;PMS_P1;PMS_P2;Temp;Humidity;BMP_temperature;BMP_pressure;BME280_temperature;BME280_humidity;BME280_pressure;Samples;Min_cycle;Max_cycle;Signal;HPM_P1;HPM_P2
2021/01/08 00:02:21;;;;;;;0.40;0.40;;;;;;;3.08;78.77;100126.85;1843263;77;21006;-36
2021/01/08 00:04:49;;;;;;;2.00;0.50;;;;;;;3.11;78.46;100123.03;1843482;77;21034;-38
2021/01/08 00:07:18;;;;;;;0.80;0.80;;;;;;;3.11;78.56;100135.82;1843381;77;21124;-36
2021/01/08 00:09:47;;;;;;;1.15;0.70;;;;;;;3.11;78.43;100133.27;1843327;77;20916;-37
2021/01/08 00:12:15;;;;;;;1.82;0.68;;;;;;;3.08;78.63;100139.64;1843439;77;21042;-37
2021/01/08 00:14:45;;;;;;;2.80;0.60;;;;;;;3.12;78.51;100141.81;1843422;77;20986;-35
2021/01/08 00:17:13;;;;;;;0.65;0.65;;;;;;;3.12;78.67;100145.65;1843345;77;20916;-36
2021/01/08 00:19:42;;;;;;;0.90;0.90;;;;;;;3.10;78.33;100145.63;1843448;77;21369;-36
2021/01/08 00:22:10;;;;;;;1.57;0.80;;;;;;;3.09;78.68;100143.91;1843363;77;20911;-36
2021/01/08 00:24:39;;;;;;;0.70;0.70;;;;;;;3.12;78.32;100147.77;1843480;77;20903;-37
2021/01/08 00:27:08;;;;;;;1.35;1.05;;;;;;;3.15;77.48;100137.99;1843241;77;20907;-36
2021/01/08 00:29:36;;;;;;;0.70;0.70;;;;;;;3.16;77.31;100139.70;1843522;77;20888;-35
2021/01/08 00:32:05;;;;;;;0.70;0.70;;;;;;;3.17;77.36;100124.78;1843433;77;21185;-36
2021/01/08 00:34:33;;;;;;;0.88;0.88;;;;;;;3.18;76.84;100126.94;1843379;77;20963;-37
2021/01/08 00:37:03;;;;;;;13.08;1.90;;;;;;;3.18;76.76;100132.05;1843365;77;20966;-36
2021/01/08 00:39:31;;;;;;;1.20;0.80;;;;;;;3.14;76.92;100130.72;1843499;77;20987;-36
2021/01/08 00:42:01;;;;;;;2.25;0.70;;;;;;;3.18;76.78;100130.77;1843448;77;20892;-36
2021/01/08 00:44:31;;;;;;;2.83;1.05;;;;;;;3.18;76.70;100125.22;1843421;77;21532;-37
2021/01/08 00:46:59;;;;;;;4.20;0.90;;;;;;;3.12;77.18;100115.79;1843266;77;21112;-36
2021/01/08 00:49:27;;;;;;;3.25;0.75;;;;;;;3.11;77.32;100138.81;1843376;77;20963;-36
2021/01/08 00:51:56;;;;;;;2.77;0.90;;;;;;;3.16;76.51;100118.83;1843319;77;20900;-36
2021/01/08 00:54:25;;;;;;;1.10;1.02;;;;;;;3.14;77.05;100129.45;1843396;77;21041;-36
2021/01/08 00:56:56;;;;;;;4.90;0.90;;;;;;;3.09;77.47;100134.12;1842144;77;21367;-37
2021/01/08 00:59:38;;;;;;;0.80;0.80;;;;;;;3.17;77.26;100124.78;1812767;77;22759;-36
2021/01/08 01:02:07;;;;;;;2.77;1.30;;;;;;;3.09;77.27;100132.40;1784322;80;20923;-36
2021/01/08 01:04:35;;;;;;;1.10;1.10;;;;;;;3.05;77.68;100128.11;1784303;80;22830;-35
2021/01/08 01:07:03;;;;;;;1.00;1.00;;;;;;;3.05;77.62;100128.55;1784111;80;20986;-35
2021/01/08 01:09:33;;;;;;;3.55;1.25;;;;;;;3.03;77.97;100133.64;1784323;80;20990;-38
2021/01/08 01:12:06;;;;;;;1.27;1.27;;;;;;;3.01;77.82;100133.62;1784272;80;20992;-36
2021/01/08 01:14:35;;;;;;;1.70;0.98;;;;;;;2.98;78.27;100137.88;1784343;80;20919;-37
2021/01/08 01:17:04;;;;;;;1.22;1.00;;;;;;;3.00;78.51;100147.69;1784295;80;21201;-37
2021/01/08 01:19:33;;;;;;;1.00;0.90;;;;;;;2.95;78.69;100151.48;1784186;80;20975;-35
2021/01/08 01:22:00;;;;;;;1.60;1.05;;;;;;;2.97;78.47;100170.69;1784187;80;21002;-37
2021/01/08 01:24:29;;;;;;;0.90;0.90;;;;;;;2.98;78.12;100177.08;1784279;80;21551;-35
2021/01/08 01:26:58;;;;;;;1.55;1.45;;;;;;;2.99;78.08;100191.57;1784280;80;20986;-35
2021/01/08 01:29:26;;;;;;;4.33;1.60;;;;;;;3.04;77.34;100213.36;1784217;80;21211;-35
2021/01/08 01:31:55;;;;;;;4.00;1.15;;;;;;;3.03;77.36;100224.44;1784205;80;20982;-35
2021/01/08 01:34:24;;;;;;;1.12;1.12;;;;;;;3.07;77.20;100206.15;1784243;80;20951;-36
2021/01/08 01:36:52;;;;;;;1.42;1.32;;;;;;;3.06;77.08;100209.11;1784141;80;21018;-36
2021/01/08 01:39:20;;;;;;;1.72;1.30;;;;;;;3.06;76.95;100209.11;1784238;80;21023;-36
2021/01/08 01:41:49;;;;;;;3.72;1.05;;;;;;;3.01;77.40;100210.34;1784274;80;21346;-36
2021/01/08 01:44:18;;;;;;;1.40;1.30;;;;;;;2.98;77.74;100219.70;1784255;79;21196;-36
2021/01/08 01:46:48;;;;;;;1.40;1.30;;;;;;;2.97;77.54;100224.39;1784192;80;20875;-37
2021/01/08 01:49:17;;;;;;;1.27;1.22;;;;;;;2.96;77.63;100221.39;1784217;79;20908;-37
2021/01/08 01:51:46;;;;;;;1.10;1.10;;;;;;;2.96;77.88;100223.95;1784261;80;20903;-35
2021/01/08 01:54:16;;;;;;;1.20;1.10;;;;;;;2.93;78.19;100221.38;1784173;80;21203;-35
2021/01/08 01:56:44;;;;;;;1.15;1.15;;;;;;;2.91;78.11;100229.45;1784174;80;21204;-37
2021/01/08 01:59:12;;;;;;;1.20;1.20;;;;;;;2.88;78.16;100223.44;1790805;80;20990;-37
2021/01/08 02:01:44;;;;;;;1.02;1.02;;;;;;;2.88;78.40;100228.55;1793555;80;21010;-37
2021/01/08 02:04:13;;;;;;;2.83;0.80;;;;;;;2.90;78.19;100222.59;1793688;80;20950;-35
2021/01/08 02:06:41;;;;;;;1.00;0.90;;;;;;;2.91;78.01;100218.79;1793711;80;22754;-36
2021/01/08 02:09:12;;;;;;;1.50;1.27;;;;;;;2.87;78.00;100220.45;1793415;80;21010;-35
2021/01/08 02:11:43;;;;;;;1.07;1.07;;;;;;;2.83;78.23;100212.75;1793217;80;21041;-35
2021/01/08 02:14:18;;;;;;;1.02;1.02;;;;;;;2.87;77.79;100212.78;1793151;80;21034;-36
2021/01/08 02:16:48;;;;;;;3.52;1.20;;;;;;;2.81;77.96;100228.06;1793432;80;20903;-36
2021/01/08 02:19:26;;;;;;;1.10;1.10;;;;;;;2.78;78.06;100226.77;1793109;80;21138;-36
2021/01/08 02:22:00;;;;;;;1.47;0.90;;;;;;;2.81;78.02;100235.73;1784655;80;20895;-35
2021/01/08 02:24:47;;;;;;;1.35;1.25;;;;;;;2.81;78.05;100242.12;1793177;80;21070;-35
2021/01/08 02:27:16;;;;;;;1.60;1.20;;;;;;;2.80;77.84;100242.97;1790732;80;20923;-36
2021/01/08 02:29:45;;;;;;;1.10;0.75;;;;;;;2.76;77.92;100246.34;1793249;80;20899;-36
2021/01/08 02:32:13;;;;;;;1.30;1.20;;;;;;;2.78;78.05;100244.66;1793075;80;21202;-36
2021/01/08 02:34:42;;;;;;;1.62;1.52;;;;;;;2.82;77.58;100248.95;1793080;80;21001;-36
2021/01/08 02:37:10;;;;;;;1.37;1.30;;;;;;;2.83;77.24;100249.39;1792956;80;21010;-36
2021/01/08 02:39:38;;;;;;;1.47;1.17;;;;;;;2.81;77.47;100260.02;1793158;80;21084;-35
2021/01/08 02:42:09;;;;;;;1.05;1.05;;;;;;;2.83;77.33;100251.95;1793145;80;20907;-36
2021/01/08 02:44:39;;;;;;;1.30;1.30;;;;;;;2.82;77.66;100246.84;1764750;80;20891;-36
2021/01/08 02:47:08;;;;;;;1.10;1.10;;;;;;;2.83;77.39;100254.94;1793038;80;21009;-36
2021/01/08 02:49:36;;;;;;;2.52;1.05;;;;;;;2.82;77.24;100251.52;1793231;80;20907;-36
2021/01/08 02:52:05;;;;;;;1.42;1.32;;;;;;;2.90;76.87;100253.28;1793022;80;20927;-36
2021/01/08 02:54:33;;;;;;;4.53;1.27;;;;;;;2.85;77.23;100256.66;1764730;80;21034;-36
2021/01/08 02:57:05;;;;;;;2.90;1.60;;;;;;;2.88;76.91;100262.23;1793129;80;21467;-35
2021/01/08 02:59:33;;;;;;;1.40;1.20;;;;;;;2.87;77.12;100255.41;1791044;80;20946;-36
2021/01/08 03:02:02;;;;;;;1.35;1.25;;;;;;;2.86;77.40;100260.92;1790592;80;21001;-37
2021/01/08 03:04:30;;;;;;;1.77;1.67;;;;;;;2.88;77.34;100260.95;1790551;80;20998;-36
2021/01/08 03:06:59;;;;;;;1.40;1.30;;;;;;;2.83;77.52;100261.33;1790659;80;20927;-36
2021/01/08 03:09:28;;;;;;;1.17;1.17;;;;;;;2.81;77.79;100263.86;1790587;80;21212;-35
2021/01/08 03:11:57;;;;;;;1.82;1.65;;;;;;;2.80;77.92;100272.81;1790478;80;20978;-38
2021/01/08 03:14:26;;;;;;;3.02;1.75;;;;;;;2.77;78.08;100280.02;1790676;80;20959;-36
2021/01/08 03:16:55;;;;;;;4.22;1.20;;;;;;;2.75;78.19;100282.98;1790478;80;20942;-35
2021/01/08 03:19:25;;;;;;;1.52;1.42;;;;;;;2.77;78.09;100274.90;1790524;80;21010;-36
2021/01/08 03:21:53;;;;;;;4.28;1.60;;;;;;;2.80;77.95;100281.32;1790520;80;21189;-36
2021/01/08 03:24:21;;;;;;;4.72;1.60;;;;;;;2.80;77.65;100288.98;1790438;80;20986;-35
2021/01/08 03:26:49;;;;;;;1.75;1.65;;;;;;;2.78;78.03;100294.51;1790525;80;21409;-36
2021/01/08 03:29:18;;;;;;;1.60;1.50;;;;;;;2.83;77.55;100291.58;1790605;80;20864;-36
2021/01/08 03:31:46;;;;;;;2.35;1.67;;;;;;;2.83;77.43;100286.46;1790560;80;20860;-35
2021/01/08 03:34:15;;;;;;;2.25;2.05;;;;;;;2.81;77.57;100283.47;1790478;80;21063;-36
2021/01/08 03:36:43;;;;;;;1.95;1.85;;;;;;;2.78;77.67;100290.67;1790464;80;21018;-37
2021/01/08 03:39:11;;;;;;;4.97;1.60;;;;;;;2.81;77.47;100297.53;1790469;80;20951;-36
2021/01/08 03:41:40;;;;;;;1.85;1.75;;;;;;;2.81;77.23;100302.65;1790514;80;20903;-36
2021/01/08 03:44:08;;;;;;;1.62;1.40;;;;;;;2.80;77.26;100303.05;1790615;80;20915;-35
2021/01/08 03:46:36;;;;;;;1.50;1.50;;;;;;;2.81;77.35;100303.92;1790577;80;21371;-36
2021/01/08 03:49:07;;;;;;;1.70;1.60;;;;;;;2.79;77.60;100305.61;1790524;80;20919;-36
2021/01/08 03:51:39;;;;;;;1.87;1.77;;;;;;;2.73;77.78;100316.17;1790441;80;20915;-36
2021/01/08 03:54:09;;;;;;;1.75;1.65;;;;;;;2.70;78.01;100322.53;1790477;80;20999;-36
2021/01/08 03:56:37;;;;;;;1.82;1.72;;;;;;;2.67;78.40;100327.62;1790540;80;20922;-35
2021/01/08 03:59:05;;;;;;;1.82;1.72;;;;;;;2.65;78.54;100331.86;1790283;79;21356;-36
2021/01/08 04:01:33;;;;;;;2.40;2.20;;;;;;;2.63;78.42;100329.70;1790462;80;21034;-35
2021/01/08 04:04:01;;;;;;;1.90;1.80;;;;;;;2.63;78.54;100340.33;1790604;80;20970;-35
2021/01/08 04:06:31;;;;;;;5.62;2.08;;;;;;;2.61;78.73;100340.33;1790412;80;21544;-36
2021/01/08 04:09:01;;;;;;;2.27;1.98;;;;;;;2.60;78.63;100341.17;1790444;80;21033;-34
2021/01/08 04:11:29;;;;;;;2.87;2.30;;;;;;;2.58;78.66;100355.63;1790508;80;21242;-35
2021/01/08 04:13:57;;;;;;;2.20;2.10;;;;;;;2.61;77.93;100359.91;1790518;80;21126;-36
2021/01/08 04:16:35;;;;;;;2.17;2.00;;;;;;;2.65;78.14;100362.93;1790447;80;21022;-37
2021/01/08 04:19:03;;;;;;;4.12;2.37;;;;;;;2.65;78.24;100359.09;1790378;80;21053;-35
2021/01/08 04:21:31;;;;;;;2.35;2.25;;;;;;;2.63;78.22;100354.39;1790615;80;21463;-36
2021/01/08 04:23:59;;;;;;;2.75;2.00;;;;;;;2.63;78.12;100365.48;1790585;80;21393;-37
2021/01/08 04:26:31;;;;;;;2.60;2.40;;;;;;;2.63;78.03;100365.89;1790405;80;20990;-37
2021/01/08 04:28:59;;;;;;;7.40;2.60;;;;;;;2.63;78.12;100364.21;1790455;80;20923;-35
2021/01/08 04:31:27;;;;;;;2.35;2.25;;;;;;;2.62;78.13;100364.17;1790414;80;20991;-35
2021/01/08 04:33:55;;;;;;;2.60;2.40;;;;;;;2.58;78.31;100365.42;1790488;80;20999;-34
2021/01/08 04:36:24;;;;;;;2.20;2.10;;;;;;;2.56;78.44;100358.59;1790440;80;21207;-37
2021/01/08 04:38:52;;;;;;;2.87;2.67;;;;;;;2.56;78.60;100371.37;1790436;80;21002;-37
2021/01/08 04:41:21;;;;;;;2.75;2.55;;;;;;;2.52;78.43;100369.58;1790438;80;21002;-36
2021/01/08 04:43:49;;;;;;;2.80;2.60;;;;;;;2.51;78.38;100371.30;1761933;80;20931;-37
2021/01/08 04:46:23;;;;;;;2.67;2.47;;;;;;;2.54;77.86;100371.33;1790436;80;20911;-36
2021/01/08 04:49:05;;;;;;;3.42;2.58;;;;;;;2.54;77.61;100367.50;1762506;80;21524;-37
2021/01/08 04:51:35;;;;;;;3.17;2.87;;;;;;;2.52;77.56;100378.12;1759890;80;21002;-36
2021/01/08 04:54:04;;;;;;;2.87;2.67;;;;;;;2.56;77.07;100384.14;1790558;80;20971;-36
2021/01/08 04:56:38;;;;;;;3.60;3.30;;;;;;;2.59;76.46;100377.80;1790549;80;21454;-35
2021/01/08 04:59:06;;;;;;;3.37;3.08;;;;;;;2.59;76.31;100373.52;1790373;79;21057;-36
2021/01/08 05:01:36;;;;;;;2.77;2.60;;;;;;;2.56;76.66;100377.75;1790436;80;21193;-35
2021/01/08 05:04:04;;;;;;;5.47;3.10;;;;;;;2.54;76.89;100370.49;1790404;80;20982;-35
2021/01/08 05:06:32;;;;;;;3.92;3.55;;;;;;;2.52;76.79;100375.56;1790480;80;21481;-36
2021/01/08 05:09:00;;;;;;;5.05;3.52;;;;;;;2.50;76.84;100376.37;1790476;80;21022;-35
2021/01/08 05:11:30;;;;;;;3.12;2.92;;;;;;;2.47;76.91;100370.82;1790449;80;20963;-36
2021/01/08 05:14:03;;;;;;;4.22;3.10;;;;;;;2.50;76.58;100375.09;1790490;80;21426;-36
2021/01/08 05:16:31;;;;;;;7.28;3.80;;;;;;;2.46;76.98;100381.88;1790384;80;21010;-35
2021/01/08 05:19:02;;;;;;;5.33;3.90;;;;;;;2.42;77.08;100386.08;1790518;80;21007;-35
2021/01/08 05:21:30;;;;;;;4.53;3.98;;;;;;;2.39;76.84;100374.95;1790450;80;21033;-36
2021/01/08 05:24:00;;;;;;;3.95;3.42;;;;;;;2.43;76.32;100378.01;1790602;80;21385;-37
2021/01/08 05:26:28;;;;;;;4.92;4.42;;;;;;;2.39;76.50;100382.61;1790414;80;21450;-35
2021/01/08 05:29:01;;;;;;;5.97;4.40;;;;;;;2.37;76.11;100381.73;1790432;80;20931;-36
2021/01/08 05:31:33;;;;;;;4.58;4.17;;;;;;;2.31;76.17;100382.53;1790468;80;21006;-36
2021/01/08 05:34:01;;;;;;;6.08;4.53;;;;;;;2.24;76.33;100384.53;1790505;80;21058;-35
2021/01/08 05:36:30;;;;;;;5.45;4.87;;;;;;;2.23;76.23;100390.48;1790556;80;21005;-36
2021/01/08 05:39:00;;;;;;;7.50;5.70;;;;;;;2.17;76.27;100397.66;1790501;80;21142;-36
2021/01/08 05:41:30;;;;;;;6.53;5.15;;;;;;;2.11;76.47;100407.75;1790357;80;20998;-36
2021/01/08 05:43:59;;;;;;;10.35;5.78;;;;;;;2.07;76.63;100412.38;1790498;80;20919;-36
2021/01/08 05:46:35;;;;;;;6.22;4.60;;;;;;;2.10;76.18;100413.70;1790547;80;21121;-36
2021/01/08 05:49:05;;;;;;;8.43;6.00;;;;;;;2.09;76.14;100408.15;1790753;80;20975;-37
2021/01/08 05:51:36;;;;;;;9.33;6.22;;;;;;;2.04;76.02;100416.16;1762221;80;21441;-36
2021/01/08 05:54:05;;;;;;;10.15;6.22;;;;;;;2.00;76.08;100412.69;1790663;80;21493;-35
2021/01/08 05:56:37;;;;;;;9.00;6.95;;;;;;;1.99;76.02;100413.52;1790555;80;20970;-37
2021/01/08 05:59:06;;;;;;;12.28;7.12;;;;;;;1.96;76.25;100414.35;1790167;79;21460;-36
2021/01/08 06:01:39;;;;;;;12.80;7.17;;;;;;;1.95;76.10;100421.97;1776007;80;20972;-36
2021/01/08 06:04:08;;;;;;;11.80;7.45;;;;;;;1.93;76.14;100432.17;1744215;80;21154;-34
2021/01/08 06:06:40;;;;;;;12.28;7.40;;;;;;;1.95;76.08;100427.95;1775907;80;21035;-35
2021/01/08 06:09:13;;;;;;;13.20;7.20;;;;;;;1.98;75.99;100439.48;1775937;80;21050;-35
2021/01/08 06:11:45;;;;;;;14.95;9.05;;;;;;;1.99;76.17;100450.55;1745242;80;20994;-35
2021/01/08 06:14:17;;;;;;;15.08;8.50;;;;;;;1.98;76.31;100456.49;1776060;80;20923;-35
2021/01/08 06:16:47;;;;;;;12.50;7.87;;;;;;;2.03;75.98;100465.11;1743768;80;21158;-36
2021/01/08 06:19:16;;;;;;;13.78;8.20;;;;;;;2.07;75.73;100469.84;1775891;80;20939;-37
2021/01/08 06:21:46;;;;;;;14.93;7.67;;;;;;;2.08;75.79;100479.22;1775956;80;20979;-35
2021/01/08 06:24:23;;;;;;;12.28;8.23;;;;;;;2.09;75.99;100479.66;1775884;80;20932;-36
2021/01/08 06:26:52;;;;;;;12.45;8.38;;;;;;;2.12;75.69;100480.58;1775944;80;21521;-35
2021/01/08 06:29:24;;;;;;;18.57;11.70;;;;;;;2.16;75.50;100500.66;1775881;80;21627;-36
2021/01/08 06:31:57;;;;;;;14.30;8.78;;;;;;;2.18;75.71;100498.98;1775823;80;21573;-36
2021/01/08 06:34:31;;;;;;;12.18;8.25;;;;;;;2.19;75.75;100504.53;1775950;80;21042;-39
2021/01/08 06:37:06;;;;;;;13.60;9.18;;;;;;;2.21;75.41;100510.53;1775790;80;20919;-35
2021/01/08 06:39:38;;;;;;;14.37;8.83;;;;;;;2.20;75.55;100511.36;1776170;80;20980;-38
2021/01/08 06:42:27;;;;;;;16.40;8.33;;;;;;;2.26;75.71;100514.42;1890086;76;22628;-36
2021/01/08 06:44:56;;;;;;;14.20;9.58;;;;;;;2.21;75.72;100514.36;1861131;77;20998;-36
2021/01/08 06:47:24;;;;;;;11.12;8.45;;;;;;;2.21;75.72;100524.58;1861180;77;21355;-37
2021/01/08 06:49:53;;;;;;;15.10;8.13;;;;;;;2.20;75.72;100538.19;1828067;77;20998;-35
2021/01/08 06:52:21;;;;;;;15.90;8.70;;;;;;;2.22;75.39;100544.17;1823291;78;21015;-37
2021/01/08 06:54:54;;;;;;;18.12;8.93;;;;;;;2.25;75.66;100540.80;1823319;78;20927;-38
2021/01/08 06:57:23;;;;;;;12.75;8.48;;;;;;;2.24;75.53;100536.13;1823393;78;20969;-34
2021/01/08 06:59:57;;;;;;;15.45;10.78;;;;;;;2.22;75.46;100546.73;1823296;78;21341;-38
2021/01/08 07:02:25;;;;;;;12.60;8.85;;;;;;;2.23;75.52;100555.23;1822007;78;21596;-37
2021/01/08 07:04:54;;;;;;;15.05;9.33;;;;;;;2.23;75.34;100556.11;1823329;78;21052;-37
2021/01/08 07:07:27;;;;;;;16.65;10.15;;;;;;;2.25;75.42;100559.55;1823250;78;20979;-37
2021/01/08 07:09:55;;;;;;;16.23;10.58;;;;;;;2.25;75.16;100569.77;1793123;78;20913;-35
2021/01/08 07:12:25;;;;;;;17.10;10.25;;;;;;;2.26;75.16;100574.05;1766509;78;21377;-37
2021/01/08 07:14:54;;;;;;;15.32;10.15;;;;;;;2.27;75.30;100578.72;1823292;78;20944;-35
2021/01/08 07:17:32;;;;;;;13.93;8.88;;;;;;;2.30;75.08;100586.03;1823256;78;20968;-36
2021/01/08 07:20:04;;;;;;;13.35;9.75;;;;;;;2.32;75.22;100587.36;1823105;78;21051;-38
2021/01/08 07:22:39;;;;;;;19.45;9.75;;;;;;;2.33;74.90;100590.75;1822816;78;21425;-37
2021/01/08 07:25:14;;;;;;;17.62;9.93;;;;;;;2.29;75.21;100594.53;1823194;78;21466;-37
2021/01/08 07:27:43;;;;;;;;;;;;;;;2.32;74.87;100609.47;1825957;78;20936;-35
2021/01/08 07:30:13;;;;;;;15.53;9.95;;;;;;;2.32;74.86;100605.64;1823290;78;20113;-36
2021/01/08 07:32:48;;;;;;;16.23;9.93;;;;;;;2.31;74.77;100603.52;1823177;78;20908;-36
2021/01/08 07:35:23;;;;;;;19.98;10.23;;;;;;;2.31;74.79;100604.80;1823388;78;21008;-35
2021/01/08 07:38:09;;;;;;;16.97;9.57;;;;;;;2.32;74.70;100605.23;1823590;78;21377;-38
2021/01/08 07:40:45;;;;;;;;;;;;;;;2.33;74.85;100598.42;1827830;78;20995;-37
2021/01/08 07:43:13;;;;;;;25.33;11.47;;;;;;;2.39;74.29;100613.45;1827654;78;20121;-39
2021/01/08 07:45:58;;;;;;;20.52;10.80;;;;;;;2.38;74.25;100606.62;1832540;78;21612;-35
2021/01/08 07:48:35;;;;;;;18.65;10.32;;;;;;;2.42;73.98;100607.55;1830890;78;20968;-38
2021/01/08 07:51:07;;;;;;;27.70;11.35;;;;;;;2.44;74.36;100615.66;1832681;78;22249;-37
2021/01/08 07:53:50;;;;;;;36.13;10.50;;;;;;;2.51;74.19;100613.20;1831839;78;20924;-37
2021/01/08 07:56:23;;;;;;;21.00;10.03;;;;;;;2.47;74.66;100616.14;1831905;78;20924;-37
2021/01/08 07:59:00;;;;;;;28.00;11.50;;;;;;;2.51;74.60;100617.91;1831971;78;20991;-36
2021/01/08 08:01:28;;;;;;;24.32;10.70;;;;;;;2.54;74.29;100619.23;1832020;78;21568;-36
2021/01/08 08:04:00;;;;;;;27.10;10.30;;;;;;;2.58;73.44;100608.66;1832025;78;22635;-37
2021/01/08 08:06:35;;;;;;;43.78;11.18;;;;;;;2.55;73.65;100620.96;1831835;78;21011;-37
2021/01/08 08:09:05;;;;;;;16.45;10.05;;;;;;;2.54;73.94;100626.91;1832116;78;21082;-36
2021/01/08 08:11:37;;;;;;;16.93;10.10;;;;;;;2.57;74.09;100623.13;1831941;78;21450;-37
2021/01/08 08:14:09;;;;;;;20.52;10.32;;;;;;;2.57;73.98;100630.79;1831962;78;20916;-37
2021/01/08 08:16:37;;;;;;;27.52;11.57;;;;;;;2.58;73.70;100632.95;1831945;78;21363;-37
2021/01/08 08:19:09;;;;;;;24.77;11.00;;;;;;;2.59;73.25;100634.67;1831859;78;21023;-38
2021/01/08 08:21:40;;;;;;;16.50;9.90;;;;;;;2.61;73.12;100644.91;1831983;78;21522;-36
2021/01/08 08:24:09;;;;;;;15.88;9.13;;;;;;;2.63;73.08;100644.50;1831525;78;20944;-36
2021/01/08 08:26:37;;;;;;;14.10;9.25;;;;;;;2.56;73.59;100644.41;1831922;78;21047;-36
2021/01/08 08:29:12;;;;;;;13.85;9.35;;;;;;;2.53;73.89;100649.47;1831982;78;21277;-37
2021/01/08 08:31:45;;;;;;;14.33;9.60;;;;;;;2.51;74.40;100652.41;1831863;78;20987;-37
2021/01/08 08:34:29;;;;;;;13.70;9.13;;;;;;;2.52;74.40;100649.02;1831889;78;20876;-37
2021/01/08 08:37:08;;;;;;;12.68;9.05;;;;;;;2.52;74.78;100647.75;1831909;78;20988;-38
2021/01/08 08:39:37;;;;;;;16.05;9.38;;;;;;;2.48;75.24;100640.87;1831988;78;21023;-37
2021/01/08 08:42:05;;;;;;;13.35;8.85;;;;;;;2.47;75.11;100642.10;1831764;78;21439;-37
2021/01/08 08:44:42;;;;;;;16.45;9.10;;;;;;;2.45;75.32;100640.81;1832024;78;20936;-36
2021/01/08 08:47:11;;;;;;;15.38;9.35;;;;;;;2.48;75.03;100644.70;1831819;78;20971;-38
2021/01/08 08:49:40;;;;;;;12.88;8.68;;;;;;;2.53;74.58;100643.08;1831984;78;20912;-38
2021/01/08 08:52:10;;;;;;;19.52;9.88;;;;;;;2.51;74.35;100642.20;1831898;78;20964;-36
2021/01/08 08:54:39;;;;;;;13.25;9.13;;;;;;;2.55;73.84;100636.30;1831908;78;21501;-36
2021/01/08 08:57:10;;;;;;;15.08;9.40;;;;;;;2.55;74.13;100644.40;1831795;78;21557;-37
2021/01/08 08:59:46;;;;;;;13.58;9.53;;;;;;;2.55;74.68;100645.67;1831907;78;20948;-36
2021/01/08 09:02:27;;;;;;;16.87;9.18;;;;;;;2.55;74.87;100641.84;1831800;78;20923;-36
2021/01/08 09:05:02;;;;;;;14.30;9.65;;;;;;;2.56;75.11;100635.47;1831950;78;21020;-36
2021/01/08 09:07:54;;;;;;;28.62;10.40;;;;;;;2.50;75.18;100630.25;1832003;77;20932;-37
2021/01/08 09:10:26;;;;;;;14.45;8.90;;;;;;;2.48;75.04;100633.60;1831772;78;20928;-39
2021/01/08 09:13:15;;;;;;;15.25;8.70;;;;;;;2.47;75.30;100639.14;1831928;78;21019;-37
2021/01/08 09:16:13;;;;;;;15.93;9.75;;;;;;;2.42;75.47;100642.05;1831829;78;21058;-36
2021/01/08 09:18:52;;;;;;;18.92;9.93;;;;;;;2.41;75.58;100642.88;1831937;78;20924;-36
2021/01/08 09:21:26;;;;;;;12.65;9.18;;;;;;;2.42;75.67;100639.48;1831781;78;21156;-36
2021/01/08 09:24:00;;;;;;;40.65;11.40;;;;;;;2.43;75.46;100632.27;1831889;78;21078;-38
2021/01/08 09:26:30;;;;;;;16.15;9.13;;;;;;;2.40;75.80;100636.89;1831930;78;20964;-37
2021/01/08 09:29:01;;;;;;;15.58;9.28;;;;;;;2.40;76.15;100630.91;1831955;78;20964;-36
2021/01/08 09:31:47;;;;;;;14.45;9.35;;;;;;;2.40;75.57;100636.89;1831826;78;20968;-36
2021/01/08 09:34:19;;;;;;;13.80;8.85;;;;;;;2.38;75.61;100634.73;1831966;78;21074;-36
2021/01/08 09:36:48;;;;;;;19.02;9.33;;;;;;;2.33;75.87;100646.97;1831754;78;21526;-37
2021/01/08 09:39:15;;;;;;;17.70;8.83;;;;;;;2.36;75.54;100639.34;1831846;78;21059;-37
2021/01/08 09:41:44;;;;;;;16.60;8.85;;;;;;;2.33;76.08;100641.85;1814413;78;21056;-37
2021/01/08 09:44:14;;;;;;;17.50;9.05;;;;;;;2.40;75.91;100642.41;1774140;80;20926;-36
2021/01/08 09:46:58;;;;;;;12.95;8.60;;;;;;;2.40;75.71;100641.13;1774100;80;21367;-36
2021/01/08 09:49:28;;;;;;;12.33;9.10;;;;;;;2.39;75.78;100644.52;1774149;80;21068;-37
2021/01/08 09:52:01;;;;;;;15.68;10.08;;;;;;;2.39;75.62;100645.39;1772809;80;21030;-36
2021/01/08 09:54:47;;;;;;;20.80;9.65;;;;;;;2.34;75.60;100651.23;1784726;80;21038;-36
2021/01/08 09:57:35;;;;;;;15.75;9.30;;;;;;;2.33;75.81;100652.08;1732249;80;20924;-38
2021/01/08 10:00:11;;;;;;;13.00;9.10;;;;;;;2.32;76.00;100659.30;1774142;80;21370;-37
2021/01/08 10:02:42;;;;;;;15.85;10.05;;;;;;;2.28;76.23;100663.07;1770823;80;21022;-37
2021/01/08 10:05:26;;;;;;;14.90;9.00;;;;;;;2.28;76.27;100659.67;1774036;80;20994;-37
2021/01/08 10:07:55;;;;;;;12.85;9.40;;;;;;;2.27;76.32;100650.25;1817994;78;20868;-36
2021/01/08 10:10:32;;;;;;;12.98;9.40;;;;;;;2.28;76.34;100648.18;1817910;79;20947;-38
2021/01/08 10:13:01;;;;;;;15.60;10.05;;;;;;;2.27;76.32;100649.86;1817906;79;21358;-36
2021/01/08 10:15:46;;;;;;;16.02;10.00;;;;;;;2.27;76.39;100647.30;1817871;79;20998;-37
2021/01/08 10:18:25;;;;;;;15.53;9.15;;;;;;;2.29;76.40;100637.13;1817946;79;21273;-37
2021/01/08 10:21:05;;;;;;;16.02;10.13;;;;;;;2.32;76.46;100641.02;1817961;79;21508;-37
2021/01/08 10:23:45;;;;;;;17.00;10.48;;;;;;;2.36;76.08;100632.97;1817938;79;20900;-36
2021/01/08 10:26:17;;;;;;;16.15;10.32;;;;;;;2.33;74.70;100629.08;1817951;79;21336;-36
2021/01/08 10:28:52;;;;;;;18.07;10.55;;;;;;;2.36;74.68;100632.97;1817952;79;20919;-36
2021/01/08 10:31:21;;;;;;;16.50;9.40;;;;;;;2.38;74.30;100632.17;1818160;79;21572;-36
2021/01/08 10:33:49;;;;;;;14.40;9.15;;;;;;;2.41;74.02;100629.66;1817933;79;21635;-38
2021/01/08 10:36:17;;;;;;;14.80;9.28;;;;;;;2.40;73.61;100639.84;1817874;79;21073;-38
2021/01/08 10:38:45;;;;;;;15.75;9.70;;;;;;;2.41;72.38;100646.28;1817986;79;21379;-37
2021/01/08 10:41:17;;;;;;;16.60;10.30;;;;;;;2.33;72.49;100645.69;1817747;79;20942;-37
2021/01/08 10:43:45;;;;;;;15.63;9.23;;;;;;;2.29;72.54;100643.08;1826198;78;20938;-35
2021/01/08 10:46:14;;;;;;;14.35;9.20;;;;;;;2.35;72.07;100654.23;1826368;78;20908;-35
2021/01/08 10:48:43;;;;;;;15.45;9.68;;;;;;;2.36;72.19;100653.41;1826384;78;20865;-37
2021/01/08 10:51:12;;;;;;;15.53;9.80;;;;;;;2.31;72.31;100644.40;1826277;78;21211;-35
2021/01/08 10:55:46;;;;;;;16.20;9.85;;;;;;;2.35;72.58;100629.97;1777053;79;22819;-36
2021/01/08 10:58:15;;;;;;;12.70;8.80;;;;;;;2.34;72.69;100645.73;1749853;82;21462;-35
2021/01/08 11:00:45;;;;;;;13.88;9.63;;;;;;;2.32;72.06;100645.24;1749788;82;21338;-36
2021/01/08 11:03:14;;;;;;;21.65;10.25;;;;;;;2.27;72.53;100647.30;1749813;81;20932;-36
2021/01/08 11:05:46;;;;;;;15.20;9.60;;;;;;;2.26;72.40;100637.04;1749747;82;21306;-35
2021/01/08 11:08:14;;;;;;;13.43;8.75;;;;;;;2.21;72.43;100641.20;1749741;82;21596;-36
2021/01/08 11:10:42;;;;;;;19.92;9.43;;;;;;;2.19;72.54;100641.20;1749801;82;21054;-36
2021/01/08 11:13:10;;;;;;;21.02;9.90;;;;;;;2.16;72.14;100643.70;1749744;82;21207;-34
2021/01/08 11:15:39;;;;;;;19.17;10.20;;;;;;;2.13;72.62;100644.88;1749678;81;21014;-38
2021/01/08 11:18:09;;;;;;;16.30;9.53;;;;;;;2.13;72.65;100641.93;1749823;81;21006;-36
2021/01/08 11:20:37;;;;;;;15.13;8.73;;;;;;;2.14;72.69;100647.48;1749737;82;21584;-36
2021/01/08 11:23:05;;;;;;;13.85;9.05;;;;;;;2.15;72.35;100652.19;1749777;82;21149;-36
2021/01/08 11:25:33;;;;;;;14.20;9.40;;;;;;;2.12;72.25;100653.38;1749738;82;21203;-36
2021/01/08 11:28:03;;;;;;;14.50;9.13;;;;;;;2.08;72.44;100649.93;1749819;82;20936;-37
2021/01/08 11:30:32;;;;;;;14.23;8.80;;;;;;;2.08;72.73;100637.55;1749678;82;20978;-36
2021/01/08 11:33:02;;;;;;;13.43;8.73;;;;;;;2.10;72.19;100637.17;1749795;82;20896;-37
2021/01/08 11:35:31;;;;;;;15.78;9.13;;;;;;;2.09;72.14;100632.89;1749721;81;20911;-36
2021/01/08 11:38:01;;;;;;;13.88;8.58;;;;;;;2.08;72.26;100629.50;1749684;82;21388;-37
2021/01/08 11:40:30;;;;;;;14.03;8.58;;;;;;;2.10;72.36;100626.55;1749673;82;20951;-35
2021/01/08 11:43:00;;;;;;;13.03;8.55;;;;;;;2.13;72.53;100623.17;1749788;82;20920;-36
2021/01/08 11:45:27;;;;;;;18.20;9.10;;;;;;;2.17;72.54;100625.38;1749718;82;21640;-36
2021/01/08 11:47:56;;;;;;;31.20;8.43;;;;;;;2.21;72.39;100622.92;1749796;82;20994;-36
2021/01/08 11:50:24;;;;;;;67.08;12.23;;;;;;;2.20;72.17;100619.92;1749817;82;22084;-36